createdAt,value
2023-02-08T00:01:13.308Z,97089.78
2023-02-08T00:04:55.962Z,97089.94
2023-02-08T00:08:39.344Z,97084.97
2023-02-08T00:12:22.087Z,97076.63
2023-02-08T00:16:07.490Z,97085.19
2023-02-08T00:19:52.065Z,97079.22
2023-02-08T00:23:34.746Z,97078.47
2023-02-08T00:27:17.446Z,97079.38
2023-02-08T00:31:00.167Z,97075.13
2023-02-08T00:34:44.384Z,97070.00
2023-02-08T00:38:27.159Z,97061.50
2023-02-08T00:42:09.912Z,97064.16
2023-02-08T00:45:55.130Z,97063.34
2023-02-08T00:49:37.924Z,97053.19
2023-02-08T00:53:21.971Z,97065.28
2023-02-08T00:57:05.293Z,97058.63
2023-02-08T01:00:47.968Z,97053.97
2023-02-08T01:04:30.743Z,97059.09
2023-02-08T01:08:13.535Z,97061.09
2023-02-08T01:11:57.644Z,97062.75
2023-02-08T01:15:40.446Z,97056.00
2023-02-08T01:19:23.195Z,97059.88
2023-02-08T01:23:05.883Z,97055.72
2023-02-08T01:26:48.566Z,97056.72
2023-02-08T01:30:32.589Z,97052.63
2023-02-08T01:34:15.294Z,97051.72
2023-02-08T01:37:57.925Z,97045.97
2023-02-08T01:41:44.177Z,97046.13
2023-02-08T01:45:28.873Z,97040.97
2023-02-08T01:49:17.537Z,97048.84
2023-02-08T01:53:00.725Z,97043.88
2023-02-08T01:56:45.670Z,97044.03
2023-02-08T02:00:28.844Z,97035.41
2023-02-08T02:04:13.021Z,97033.72
2023-02-08T02:07:56.947Z,97041.38
2023-02-08T02:11:39.710Z,97045.84
2023-02-08T02:15:22.612Z,97028.72
2023-02-08T02:19:06.607Z,97029.56
2023-02-08T02:23:26.428Z,97032.19
2023-02-08T02:27:23.050Z,97032.34
2023-02-08T02:31:42.652Z,97025.38
2023-02-08T02:35:30.849Z,97032.50
2023-02-08T02:39:20.116Z,97029.16
2023-02-08T02:43:27.012Z,97031.75
2023-02-08T02:47:17.035Z,97037.78
2023-02-08T02:51:02.556Z,97043.22
2023-02-08T02:54:47.698Z,97036.44
2023-02-08T02:58:32.360Z,97023.66
2023-02-08T03:02:16.357Z,97042.69
2023-02-08T03:06:01.947Z,97046.19
2023-02-08T03:09:54.128Z,97047.00
2023-02-08T03:13:47.181Z,97044.53
2023-02-08T03:17:37.575Z,97051.53
2023-02-08T03:21:22.947Z,97044.75
2023-02-08T03:25:09.102Z,97032.88
2023-02-08T03:28:58.026Z,97049.13
2023-02-08T03:32:44.138Z,97037.31
2023-02-08T03:36:28.565Z,97033.03
2023-02-08T03:40:15.670Z,97043.38
2023-02-08T03:44:01.136Z,97026.38
2023-02-08T03:47:47.207Z,97020.53
2023-02-08T03:51:31.178Z,97028.84
2023-02-08T03:55:17.377Z,97024.31
2023-02-08T03:59:03.148Z,97019.16
2023-02-08T04:02:53.271Z,97020.69
2023-02-08T04:06:36.001Z,97026.59
2023-02-08T04:10:18.858Z,97019.03
2023-02-08T04:14:01.576Z,97022.78
2023-02-08T04:17:44.552Z,97023.56
2023-02-08T04:21:28.653Z,97010.56
2023-02-08T04:25:11.448Z,97002.91
2023-02-08T04:28:57.156Z,97006.63
2023-02-08T04:32:39.818Z,97006.69
2023-02-08T04:36:22.752Z,97004.97
2023-02-08T04:40:07.492Z,96998.91
2023-02-08T04:43:50.181Z,97005.16
2023-02-08T04:47:32.826Z,97002.50
2023-02-08T04:51:15.482Z,97004.03
2023-02-08T04:54:58.196Z,97002.50
2023-02-08T04:58:42.227Z,96982.09
2023-02-08T05:02:24.887Z,96990.72
2023-02-08T05:06:08.149Z,96987.38
2023-02-08T05:09:50.980Z,96982.38
2023-02-08T05:13:34.015Z,96983.38
2023-02-08T05:17:19.776Z,96988.25
2023-02-08T05:21:03.977Z,96992.56
2023-02-08T05:24:49.097Z,96987.44
2023-02-08T05:28:31.797Z,96988.41
2023-02-08T05:32:14.479Z,96976.47
2023-02-08T05:35:58.577Z,96977.59
2023-02-08T05:39:42.644Z,96980.78
2023-02-08T05:43:25.361Z,96976.63
2023-02-08T05:47:08.011Z,96987.94
2023-02-08T05:50:50.688Z,96992.16
2023-02-08T05:54:34.753Z,96983.84
2023-02-08T05:58:17.624Z,96995.03
2023-02-08T06:02:00.268Z,96991.56
2023-02-08T06:05:43.427Z,96993.22
2023-02-08T06:09:26.106Z,96991.06
2023-02-08T06:13:10.548Z,96989.41
2023-02-08T06:16:53.219Z,96980.13
2023-02-08T06:20:36.062Z,96991.22
2023-02-08T06:24:18.721Z,96973.38
2023-02-08T06:28:01.367Z,96986.78
2023-02-08T06:31:45.523Z,96983.16
2023-02-08T06:35:28.352Z,96984.06
2023-02-08T06:39:11.046Z,97003.97
2023-02-08T06:42:53.728Z,97004.81
2023-02-08T06:46:36.612Z,96998.72
2023-02-08T06:50:22.100Z,97000.06
2023-02-08T06:54:06.658Z,97011.91
2023-02-08T06:57:49.369Z,97008.16
2023-02-08T07:01:32.056Z,97015.69
2023-02-08T07:05:14.941Z,97017.28
2023-02-08T07:08:58.951Z,97022.97
2023-02-08T07:12:41.633Z,97016.19
2023-02-08T07:16:24.347Z,97014.91
2023-02-08T07:20:07.961Z,97026.16
2023-02-08T07:23:50.823Z,97025.75
2023-02-08T07:27:34.957Z,97024.69
2023-02-08T07:31:18.856Z,97028.63
2023-02-08T07:35:01.764Z,97027.44
2023-02-08T07:38:47.257Z,97032.94
2023-02-08T07:42:29.937Z,97023.25
2023-02-08T07:46:15.717Z,97017.97
2023-02-08T07:49:58.404Z,97016.91
2023-02-08T07:53:41.173Z,97019.03
2023-02-08T07:57:23.920Z,97018.44
2023-02-08T08:01:21.035Z,97006.03
2023-02-08T08:05:06.159Z,97017.44
2023-02-08T08:08:49.083Z,97017.66
2023-02-08T08:12:31.749Z,97018.13
2023-02-08T08:16:14.920Z,97015.09
2023-02-08T08:19:57.585Z,97011.25
2023-02-08T08:23:41.650Z,97012.06
2023-02-08T08:27:24.647Z,97015.25
2023-02-08T08:31:11.355Z,97008.44
2023-02-08T08:34:54.043Z,97018.41
2023-02-08T08:38:37.112Z,97022.81
2023-02-08T08:42:21.238Z,97021.53
2023-02-08T08:46:03.954Z,97017.81
2023-02-08T08:49:48.692Z,97022.09
2023-02-08T08:53:31.327Z,97015.94
2023-02-08T08:57:14.016Z,97010.94
2023-02-08T09:01:00.055Z,97007.91
2023-02-08T09:04:42.930Z,97003.03
2023-02-08T09:08:25.657Z,96998.31
2023-02-08T09:12:08.787Z,97006.78
2023-02-08T09:15:51.529Z,97008.22
2023-02-08T09:19:35.573Z,97004.97
2023-02-08T09:23:18.233Z,97007.22
2023-02-08T09:27:00.934Z,97004.91
2023-02-08T09:30:43.921Z,97007.72
2023-02-08T09:34:26.870Z,97019.78
2023-02-08T09:38:11.583Z,97005.41
2023-02-08T09:42:05.717Z,97024.53
2023-02-08T09:46:00.008Z,97023.34
2023-02-08T09:49:47.723Z,97018.69
2023-02-08T09:53:34.347Z,97026.84
2023-02-08T09:57:19.988Z,97035.81
2023-02-08T10:01:05.937Z,97035.81
2023-02-08T10:04:58.145Z,97027.41
2023-02-08T10:08:43.457Z,97013.69
2023-02-08T10:12:34.444Z,97016.66
2023-02-08T10:16:28.959Z,97016.13
2023-02-08T10:20:20.145Z,97015.38
2023-02-08T10:24:18.733Z,97003.66
2023-02-08T10:28:17.705Z,97000.28
2023-02-08T10:32:07.984Z,97000.94
2023-02-08T10:35:51.350Z,96999.75
2023-02-08T10:39:36.903Z,96992.31
2023-02-08T10:43:24.275Z,96990.72
2023-02-08T10:47:12.945Z,96973.69
2023-02-08T10:50:55.821Z,96977.47
2023-02-08T10:54:39.927Z,96966.16
2023-02-08T10:58:25.520Z,96974.28
2023-02-08T11:02:21.396Z,96964.88
2023-02-08T11:06:04.430Z,96960.59
2023-02-08T11:09:48.410Z,96955.06
2023-02-08T11:13:36.711Z,96949.50
2023-02-08T11:17:27.133Z,96952.84
2023-02-08T11:21:21.645Z,96957.47
2023-02-08T11:25:15.742Z,96949.84
2023-02-08T11:29:03.511Z,96944.50
2023-02-08T11:32:47.797Z,96941.53
2023-02-08T11:36:34.505Z,96937.28
2023-02-08T11:40:22.506Z,96950.09
2023-02-08T11:44:07.163Z,96932.41
2023-02-08T11:47:50.450Z,96925.16
2023-02-08T11:51:35.704Z,96928.28
2023-02-08T11:55:26.500Z,96924.09
2023-02-08T11:59:20.299Z,96917.59
2023-02-08T12:03:05.335Z,96902.91
2023-02-08T12:07:19.068Z,96898.56
2023-02-08T12:11:19.339Z,96894.13
2023-02-08T12:15:06.404Z,96902.91
2023-02-08T12:18:59.184Z,96892.66
2023-02-08T12:22:43.565Z,96876.00
2023-02-08T12:26:44.427Z,96871.88
2023-02-08T12:30:32.179Z,96876.63
2023-02-08T12:34:20.469Z,96862.13
2023-02-08T12:38:23.205Z,96868.94
2023-02-08T12:42:17.619Z,96851.72
2023-02-08T12:46:19.668Z,96851.53
2023-02-08T12:50:11.098Z,96855.88
2023-02-08T12:53:55.590Z,96839.34
2023-02-08T12:57:41.137Z,96844.13
2023-02-08T13:01:26.281Z,96832.06
2023-02-08T13:05:09.842Z,96834.28
2023-02-08T13:08:55.220Z,96828.66
2023-02-08T13:12:42.207Z,96824.59
2023-02-08T13:16:27.508Z,96822.06
2023-02-08T13:20:21.487Z,96811.06
2023-02-08T13:24:05.313Z,96808.03
2023-02-08T13:27:49.513Z,96809.22
2023-02-08T13:31:36.029Z,96807.13
2023-02-08T13:35:21.010Z,96807.84
2023-02-08T13:39:06.225Z,96801.19
2023-02-08T13:42:53.521Z,96791.13
2023-02-08T13:46:38.922Z,96782.75
2023-02-08T13:50:44.314Z,96782.16
2023-02-08T13:54:30.013Z,96776.72
2023-02-08T13:59:04.770Z,96789.47
2023-02-08T14:02:59.452Z,96779.53
2023-02-08T14:06:47.400Z,96791.38
2023-02-08T14:10:37.558Z,96780.91
2023-02-08T14:14:25.099Z,96776.88
2023-02-08T14:18:26.063Z,96778.06
2023-02-08T14:22:17.727Z,96778.38
2023-02-08T14:26:06.184Z,96783.19
2023-02-08T14:29:58.525Z,96780.91
2023-02-08T14:33:42.992Z,96782.84
2023-02-08T14:37:31.075Z,96775.97
2023-02-08T14:41:43.226Z,96775.72
2023-02-08T14:45:33.159Z,96771.97
2023-02-08T14:49:17.423Z,96775.53
2023-02-08T14:53:06.405Z,96770.63
2023-02-08T14:56:55.614Z,96761.31
2023-02-08T15:00:40.236Z,96770.91
2023-02-08T15:04:23.223Z,96770.00
2023-02-08T15:08:06.011Z,96768.72
2023-02-08T15:11:51.888Z,96767.22
2023-02-08T15:15:37.686Z,96774.09
2023-02-08T15:19:24.818Z,96762.88
2023-02-08T15:23:22.717Z,96760.97
2023-02-08T15:27:21.699Z,96771.22
2023-02-08T15:31:06.617Z,96781.63
2023-02-08T15:34:54.932Z,96785.28
2023-02-08T15:38:39.498Z,96782.00
2023-02-08T15:42:23.971Z,96776.09
2023-02-08T15:46:08.126Z,96765.56
2023-02-08T15:49:55.419Z,96772.59
2023-02-08T15:53:44.188Z,96769.81
2023-02-08T15:57:35.612Z,96776.69
2023-02-08T16:01:20.558Z,96776.59
2023-02-08T16:05:13.423Z,96777.59
2023-02-08T16:08:59.174Z,96780.72
2023-02-08T16:12:41.878Z,96784.63
2023-02-08T16:16:27.264Z,96791.72
2023-02-08T16:20:26.543Z,96776.09
2023-02-08T16:24:22.215Z,96774.88
2023-02-08T16:28:06.616Z,96772.06
2023-02-08T16:31:59.351Z,96780.72
2023-02-08T16:35:43.497Z,96783.06
2023-02-08T16:39:54.047Z,96787.09
2023-02-08T16:43:37.696Z,96790.47
2023-02-08T16:47:27.684Z,96788.81
2023-02-08T16:51:15.656Z,96791.72
2023-02-08T16:54:59.164Z,96788.00
2023-02-08T16:58:42.407Z,96790.09
2023-02-08T17:02:25.067Z,96794.66
2023-02-08T17:06:08.537Z,96788.41
2023-02-08T17:09:52.535Z,96793.38
2023-02-08T17:13:35.211Z,96800.41
2023-02-08T17:17:17.848Z,96805.78
2023-02-08T17:21:02.029Z,96805.25
2023-02-08T17:24:44.744Z,96804.53
2023-02-08T17:28:28.830Z,96807.94
2023-02-08T17:32:11.499Z,96800.16
2023-02-08T17:35:54.227Z,96793.34
2023-02-08T17:39:36.878Z,96802.84
2023-02-08T17:43:19.675Z,96791.69
2023-02-08T17:47:05.867Z,96791.16
2023-02-08T17:50:50.980Z,96792.84
2023-02-08T17:54:34.598Z,96781.25
2023-02-08T17:58:19.068Z,96779.59
2023-02-08T18:02:03.144Z,96789.94
2023-02-08T18:05:46.320Z,96790.84
2023-02-08T18:09:29.067Z,96787.94
2023-02-08T18:13:11.705Z,96782.78
2023-02-08T18:16:54.355Z,96775.84
2023-02-08T18:20:40.966Z,96771.91
2023-02-08T18:24:23.790Z,96769.53
2023-02-08T18:28:06.705Z,96771.44
2023-02-08T18:31:49.613Z,96770.13
2023-02-08T18:35:32.343Z,96763.03
2023-02-08T18:39:22.873Z,96762.94
2023-02-08T18:43:05.552Z,96761.09
2023-02-08T18:46:49.673Z,96759.44
2023-02-08T18:50:32.433Z,96761.47
2023-02-08T18:54:17.894Z,96761.47
2023-02-08T18:58:00.761Z,96762.47
2023-02-08T19:01:43.510Z,96756.59
2023-02-08T19:05:26.366Z,96752.97
2023-02-08T19:09:09.225Z,96744.50
2023-02-08T19:12:53.300Z,96755.03
2023-02-08T19:16:37.435Z,96743.63
2023-02-08T19:20:20.391Z,96742.16
2023-02-08T19:24:03.771Z,96756.53
2023-02-08T19:27:50.265Z,96757.44
2023-02-08T19:31:34.883Z,96750.00
2023-02-08T19:35:18.441Z,96745.84
2023-02-08T19:39:03.983Z,96743.28
2023-02-08T19:42:46.763Z,96740.88
2023-02-08T19:46:29.404Z,96745.31
2023-02-08T19:50:15.084Z,96736.13
2023-02-08T19:53:58.136Z,96745.59
2023-02-08T19:57:40.884Z,96741.38
2023-02-08T20:01:23.952Z,96743.13
2023-02-08T20:05:07.463Z,96737.97
2023-02-08T20:08:51.875Z,96727.84
2023-02-08T20:12:34.551Z,96733.00
2023-02-08T20:16:17.388Z,96732.44
2023-02-08T20:20:00.053Z,96730.06
2023-02-08T20:23:42.857Z,96738.91
2023-02-08T20:27:32.095Z,96731.25
2023-02-08T20:31:16.863Z,96732.91
2023-02-08T20:35:00.147Z,96733.75
2023-02-08T20:38:43.615Z,96735.59
2023-02-08T20:42:27.680Z,96736.63
2023-02-08T20:46:15.465Z,96739.25
2023-02-08T20:49:59.605Z,96743.97
2023-02-08T20:53:44.947Z,96747.56
2023-02-08T20:57:30.532Z,96742.69
2023-02-08T21:01:16.356Z,96747.94
2023-02-08T21:04:59.024Z,96742.22
2023-02-08T21:08:42.107Z,96753.44
2023-02-08T21:12:25.768Z,96745.91
2023-02-08T21:16:10.294Z,96735.78
2023-02-08T21:19:53.060Z,96737.63
2023-02-08T21:23:36.243Z,96742.03
2023-02-08T21:27:19.266Z,96742.13
2023-02-08T21:31:07.839Z,96741.31
2023-02-08T21:34:52.108Z,96733.94
2023-02-08T21:38:34.834Z,96736.78
2023-02-08T21:42:17.497Z,96730.06
2023-02-08T21:46:03.313Z,96720.78
2023-02-08T21:50:03.450Z,96728.69
2023-02-08T21:54:05.342Z,96725.28
2023-02-08T21:57:48.009Z,96721.97
2023-02-08T22:01:30.968Z,96712.59
2023-02-08T22:05:13.707Z,96715.22
2023-02-08T22:08:57.794Z,96714.38
2023-02-08T22:12:43.140Z,96712.00
2023-02-08T22:16:25.932Z,96699.47
2023-02-08T22:20:09.937Z,96705.72
2023-02-08T22:23:53.197Z,96711.06
2023-02-08T22:27:38.432Z,96710.41
2023-02-08T22:31:21.608Z,96709.59
2023-02-08T22:35:04.399Z,96705.53
2023-02-08T22:38:47.093Z,96709.94
2023-02-08T22:42:29.843Z,96710.69
2023-02-08T22:46:13.962Z,96703.22
2023-02-08T22:49:58.270Z,96699.09
2023-02-08T22:53:44.162Z,96696.69
2023-02-08T22:57:26.827Z,96692.56
2023-02-08T23:01:13.097Z,96691.72
2023-02-08T23:04:57.230Z,96683.25
2023-02-08T23:08:40.011Z,96677.19
2023-02-08T23:12:22.712Z,96680.78
2023-02-08T23:16:05.963Z,96693.91
2023-02-08T23:19:48.703Z,96690.78
2023-02-08T23:23:32.733Z,96694.28
2023-02-08T23:27:15.385Z,96695.94
2023-02-08T23:30:58.179Z,96685.94
2023-02-08T23:34:40.934Z,96695.59
2023-02-08T23:38:23.982Z,96691.63
2023-02-08T23:42:25.274Z,96679.84
2023-02-08T23:46:08.844Z,96683.53
2023-02-08T23:49:51.613Z,96684.53
2023-02-08T23:53:34.872Z,96682.22
2023-02-08T23:57:19.288Z,96677.25
